createdAt,value
2018-01-11T00:01:44.117Z,4.40
2018-01-11T00:04:11.813Z,4.50
2018-01-11T00:06:38.732Z,4.50
2018-01-11T00:09:05.668Z,4.50
2018-01-11T00:11:33.366Z,4.60
2018-01-11T00:14:00.352Z,4.50
2018-01-11T00:16:27.295Z,4.80
2018-01-11T00:18:54.232Z,4.90
2018-01-11T00:21:21.140Z,4.70
2018-01-11T00:23:48.108Z,4.50
2018-01-11T00:26:15.047Z,4.30
2018-01-11T00:28:41.984Z,4.20
2018-01-11T00:31:08.931Z,4.20
2018-01-11T00:33:35.882Z,4.20
2018-01-11T00:36:02.802Z,4.20
2018-01-11T00:38:29.724Z,4.20
2018-01-11T00:40:57.434Z,4.10
2018-01-11T00:43:24.322Z,4.10
2018-01-11T00:45:52.021Z,4.40
2018-01-11T00:48:18.942Z,4.40
2018-01-11T00:50:46.645Z,4.70
2018-01-11T00:53:13.595Z,4.60
2018-01-11T00:55:40.696Z,4.50
2018-01-11T00:58:07.608Z,4.40
2018-01-11T01:00:34.539Z,4.30
2018-01-11T01:03:01.452Z,4.30
2018-01-11T01:05:28.406Z,4.30
2018-01-11T01:07:55.342Z,4.20
2018-01-11T01:10:22.268Z,4.20
2018-01-11T01:12:50.122Z,4.20
2018-01-11T01:15:17.818Z,4.10
2018-01-11T01:17:44.924Z,4.10
2018-01-11T01:20:13.632Z,4.20
2018-01-11T01:25:24.840Z,4.20
2018-01-11T01:27:51.752Z,4.20
2018-01-11T01:30:19.461Z,4.20
2018-01-11T01:32:46.369Z,4.10
2018-01-11T01:35:14.082Z,4.20
2018-01-11T01:37:41.015Z,4.20
2018-01-11T01:40:07.925Z,4.00
2018-01-11T01:42:34.870Z,3.90
2018-01-11T01:45:01.785Z,3.80
2018-01-11T01:47:28.702Z,3.80
2018-01-11T01:49:55.644Z,3.70
2018-01-11T01:52:22.553Z,3.70
2018-01-11T01:54:49.497Z,3.70
2018-01-11T01:57:16.409Z,4.00
2018-01-11T01:59:43.333Z,4.00
2018-01-11T02:02:10.265Z,4.00
2018-01-11T02:04:37.223Z,3.90
2018-01-11T02:07:04.171Z,3.90
2018-01-11T02:09:31.084Z,3.80
2018-01-11T02:11:58.021Z,3.90
2018-01-11T02:14:24.936Z,3.90
2018-01-11T02:16:52.626Z,3.90
2018-01-11T02:19:19.553Z,3.90
2018-01-11T02:21:46.468Z,3.90
2018-01-11T02:24:13.380Z,3.80
2018-01-11T02:26:40.315Z,3.70
2018-01-11T02:29:07.225Z,3.70
2018-01-11T02:31:34.921Z,3.70
2018-01-11T02:34:01.829Z,3.70
2018-01-11T02:36:28.748Z,3.70
2018-01-11T02:38:55.681Z,3.70
2018-01-11T02:41:22.606Z,3.60
2018-01-11T02:43:49.517Z,3.70
2018-01-11T02:46:16.440Z,3.70
2018-01-11T02:48:44.125Z,3.60
2018-01-11T02:51:11.052Z,3.60
2018-01-11T02:53:38.728Z,3.50
2018-01-11T02:56:06.517Z,3.40
2018-01-11T02:58:33.425Z,3.50
2018-01-11T03:01:01.135Z,3.70
2018-01-11T03:03:28.048Z,3.70
2018-01-11T03:05:54.978Z,3.80
2018-01-11T03:08:22.653Z,4.00
2018-01-11T03:10:49.582Z,4.00
2018-01-11T03:13:16.491Z,3.90
2018-01-11T03:15:43.748Z,3.90
2018-01-11T03:18:10.661Z,3.90
2018-01-11T03:20:37.591Z,4.00
2018-01-11T03:23:04.497Z,3.90
2018-01-11T03:25:32.264Z,3.70
2018-01-11T03:27:59.952Z,3.80
2018-01-11T03:30:26.882Z,3.70
2018-01-11T03:32:53.796Z,3.70
2018-01-11T03:35:20.726Z,3.60
2018-01-11T03:37:47.634Z,3.60
2018-01-11T03:40:14.556Z,4.00
2018-01-11T03:42:42.228Z,3.90
2018-01-11T03:45:09.153Z,3.90
2018-01-11T03:47:36.836Z,4.20
2018-01-11T03:50:03.776Z,4.10
2018-01-11T03:52:30.692Z,4.00
2018-01-11T03:54:57.620Z,3.90
2018-01-11T03:57:25.293Z,3.70
2018-01-11T03:59:52.224Z,3.70
2018-01-11T04:02:19.907Z,3.80
2018-01-11T04:04:46.830Z,3.70
2018-01-11T04:07:15.419Z,3.70
2018-01-11T04:09:43.104Z,3.70
2018-01-11T04:12:10.012Z,3.70
2018-01-11T04:14:37.708Z,3.60
2018-01-11T04:17:04.614Z,3.60
2018-01-11T04:19:31.537Z,3.70
2018-01-11T04:21:58.452Z,3.60
2018-01-11T04:24:25.378Z,3.70
2018-01-11T04:26:53.047Z,3.80
2018-01-11T04:29:20.776Z,3.80
2018-01-11T04:31:47.683Z,3.80
2018-01-11T04:34:14.608Z,3.70
2018-01-11T04:36:41.512Z,3.60
2018-01-11T04:39:08.436Z,3.60
2018-01-11T04:41:35.356Z,3.60
2018-01-11T04:44:02.287Z,3.70
2018-01-11T04:46:29.196Z,3.60
2018-01-11T04:48:56.112Z,3.60
2018-01-11T04:51:23.039Z,3.70
2018-01-11T04:53:50.893Z,3.70
2018-01-11T04:56:17.805Z,3.70
2018-01-11T04:58:44.725Z,3.80
2018-01-11T05:01:12.625Z,3.80
2018-01-11T05:03:40.317Z,3.80
2018-01-11T05:06:07.253Z,3.80
2018-01-11T05:08:34.184Z,3.80
2018-01-11T05:11:01.099Z,3.90
2018-01-11T05:13:28.020Z,3.90
2018-01-11T05:15:54.928Z,3.80
2018-01-11T05:18:22.800Z,3.70
2018-01-11T05:20:49.708Z,3.60
2018-01-11T05:23:17.408Z,3.40
2018-01-11T05:25:44.334Z,3.40
2018-01-11T05:28:11.270Z,3.60
2018-01-11T05:30:38.945Z,3.50
2018-01-11T05:33:05.872Z,3.60
2018-01-11T05:35:33.547Z,3.70
2018-01-11T05:38:00.478Z,3.70
2018-01-11T05:40:27.398Z,3.70
2018-01-11T05:42:55.086Z,3.80
2018-01-11T05:45:22.000Z,3.70
2018-01-11T05:47:48.929Z,3.70
2018-01-11T05:50:16.605Z,3.70
2018-01-11T05:52:43.532Z,3.70
2018-01-11T05:55:10.441Z,3.90
2018-01-11T05:57:37.368Z,3.80
2018-01-11T06:00:04.273Z,3.90
2018-01-11T06:02:31.201Z,4.10
2018-01-11T06:04:58.118Z,4.10
2018-01-11T06:07:25.056Z,4.00
2018-01-11T06:09:52.736Z,3.90
2018-01-11T06:12:23.964Z,3.90
2018-01-11T06:14:50.890Z,3.90
2018-01-11T06:17:17.793Z,3.90
2018-01-11T06:19:44.708Z,3.90
2018-01-11T06:22:12.396Z,3.90
2018-01-11T06:24:39.329Z,3.90
2018-01-11T06:27:06.250Z,3.90
2018-01-11T06:29:33.155Z,4.00
2018-01-11T06:32:00.852Z,4.00
2018-01-11T06:34:27.780Z,4.00
2018-01-11T06:36:54.713Z,4.10
2018-01-11T06:39:21.624Z,4.00
2018-01-11T06:41:48.563Z,4.00
2018-01-11T06:44:16.456Z,3.90
2018-01-11T06:46:44.141Z,3.90
2018-01-11T06:49:11.051Z,3.80
2018-01-11T06:51:37.973Z,3.90
2018-01-11T06:54:04.897Z,3.90
2018-01-11T06:56:31.811Z,3.90
2018-01-11T06:58:58.766Z,3.80
2018-01-11T07:01:25.690Z,3.90
2018-01-11T07:03:52.625Z,3.90
2018-01-11T07:06:20.308Z,4.00
2018-01-11T07:08:47.228Z,3.90
2018-01-11T07:11:14.925Z,4.00
2018-01-11T07:13:41.836Z,4.00
2018-01-11T07:16:09.526Z,4.00
2018-01-11T07:18:36.434Z,3.90
2018-01-11T07:21:03.383Z,4.00
2018-01-11T07:23:31.081Z,4.10
2018-01-11T07:25:58.016Z,4.00
2018-01-11T07:28:24.924Z,4.10
2018-01-11T07:30:51.872Z,4.00
2018-01-11T07:33:19.564Z,4.10
2018-01-11T07:35:46.485Z,4.00
2018-01-11T07:38:14.168Z,4.30
2018-01-11T07:40:41.086Z,4.30
2018-01-11T07:43:08.023Z,4.60
2018-01-11T07:45:34.944Z,4.40
2018-01-11T07:48:01.879Z,4.50
2018-01-11T07:50:28.794Z,4.60
2018-01-11T07:52:56.485Z,4.50
2018-01-11T07:55:23.392Z,4.50
2018-01-11T07:57:52.182Z,4.30
2018-01-11T08:00:19.115Z,4.30
2018-01-11T08:02:46.080Z,4.30
2018-01-11T08:05:12.996Z,4.30
2018-01-11T08:07:39.915Z,4.30
2018-01-11T08:10:06.826Z,4.30
2018-01-11T08:12:33.807Z,4.30
2018-01-11T08:15:00.712Z,4.30
2018-01-11T08:17:27.632Z,4.40
2018-01-11T08:19:55.324Z,4.40
2018-01-11T08:22:22.264Z,4.40
2018-01-11T08:24:49.172Z,4.60
2018-01-11T08:27:16.124Z,4.50
2018-01-11T08:29:43.053Z,4.50
2018-01-11T08:32:09.979Z,4.50
2018-01-11T08:34:36.891Z,4.50
2018-01-11T08:37:03.830Z,4.40
2018-01-11T08:39:30.739Z,4.50
2018-01-11T08:41:57.661Z,4.60
2018-01-11T08:44:24.568Z,4.50
2018-01-11T08:46:51.507Z,4.60
2018-01-11T08:49:18.872Z,4.60
2018-01-11T08:51:45.820Z,4.70
2018-01-11T08:54:12.744Z,4.70
2018-01-11T08:56:40.433Z,4.90
2018-01-11T08:59:07.361Z,4.90
2018-01-11T09:01:34.284Z,4.80
2018-01-11T09:04:01.964Z,4.70
2018-01-11T09:06:28.905Z,4.80
2018-01-11T09:08:55.850Z,4.80
2018-01-11T09:11:22.784Z,4.80
2018-01-11T09:13:49.717Z,4.70
2018-01-11T09:16:17.407Z,4.80
2018-01-11T09:18:44.320Z,4.80
2018-01-11T09:21:11.249Z,4.80
2018-01-11T09:23:38.169Z,4.70
2018-01-11T09:26:05.104Z,4.70
2018-01-11T09:28:35.197Z,4.60
2018-01-11T09:31:02.115Z,4.80
2018-01-11T09:33:29.023Z,4.90
2018-01-11T09:35:55.940Z,4.90
2018-01-11T09:38:22.860Z,4.90
2018-01-11T09:40:50.548Z,4.90
2018-01-11T09:43:17.456Z,4.90
2018-01-11T09:45:45.175Z,5.10
2018-01-11T09:48:12.103Z,5.20
2018-01-11T09:50:39.031Z,5.10
2018-01-11T09:53:06.350Z,5.10
2018-01-11T09:55:33.296Z,5.10
2018-01-11T09:58:00.210Z,5.10
2018-01-11T10:00:27.133Z,5.10
2018-01-11T10:02:54.049Z,5.10
2018-01-11T10:05:21.744Z,5.20
2018-01-11T10:07:48.664Z,5.20
2018-01-11T10:10:15.595Z,5.30
2018-01-11T10:12:43.280Z,5.10
2018-01-11T10:15:10.208Z,5.10
2018-01-11T10:17:37.901Z,5.10
2018-01-11T10:20:04.858Z,5.10
2018-01-11T10:22:31.769Z,5.00
2018-01-11T10:24:58.686Z,5.00
2018-01-11T10:27:25.588Z,5.00
2018-01-11T10:29:53.272Z,4.90
2018-01-11T10:32:20.176Z,4.80
2018-01-11T10:34:47.100Z,4.90
2018-01-11T10:37:14.950Z,4.90
2018-01-11T10:39:42.640Z,5.00
2018-01-11T10:42:09.548Z,5.00
2018-01-11T10:44:36.471Z,5.10
2018-01-11T10:47:03.385Z,5.10
2018-01-11T10:49:30.308Z,5.10
2018-01-11T10:51:57.231Z,5.00
2018-01-11T10:54:24.936Z,5.00
2018-01-11T10:56:51.844Z,5.00
2018-01-11T10:59:19.538Z,5.00
2018-01-11T11:01:46.453Z,4.90
2018-01-11T11:04:14.150Z,5.00
2018-01-11T11:06:41.086Z,4.90
2018-01-11T11:09:08.012Z,5.10
2018-01-11T11:11:34.924Z,5.20
2018-01-11T11:14:01.865Z,5.10
2018-01-11T11:16:28.775Z,5.10
2018-01-11T11:18:55.707Z,4.90
2018-01-11T11:21:22.627Z,4.90
2018-01-11T11:23:51.228Z,5.00
2018-01-11T11:26:18.144Z,4.90
2018-01-11T11:28:45.838Z,5.00
2018-01-11T11:31:12.744Z,5.00
2018-01-11T11:33:39.669Z,5.10
2018-01-11T11:36:06.572Z,5.10
2018-01-11T11:38:33.501Z,5.20
2018-01-11T11:41:00.407Z,5.20
2018-01-11T11:43:27.343Z,5.20
2018-01-11T11:45:54.268Z,5.30
2018-01-11T11:48:21.196Z,5.20
2018-01-11T11:50:48.113Z,5.20
2018-01-11T11:53:15.806Z,5.20
2018-01-11T11:55:42.713Z,5.10
2018-01-11T11:58:10.413Z,5.20
2018-01-11T12:00:37.326Z,5.20
2018-01-11T12:03:05.016Z,5.20
2018-01-11T12:05:31.935Z,5.30
2018-01-11T12:07:59.637Z,5.30
2018-01-11T12:10:26.553Z,5.20
2018-01-11T12:12:53.482Z,5.20
2018-01-11T12:15:20.396Z,5.20
2018-01-11T12:17:47.325Z,5.20
2018-01-11T12:20:14.244Z,5.10
2018-01-11T12:22:41.164Z,5.10
2018-01-11T12:25:08.077Z,5.20
2018-01-11T12:27:35.021Z,5.30
2018-01-11T12:30:01.941Z,5.30
2018-01-11T12:32:28.873Z,5.30
2018-01-11T12:34:56.548Z,5.30
2018-01-11T12:37:23.485Z,5.30
2018-01-11T12:39:50.397Z,5.30
2018-01-11T12:42:17.321Z,5.40
2018-01-11T12:44:44.234Z,5.30
2018-01-11T12:47:11.152Z,5.20
2018-01-11T12:49:38.073Z,5.20
2018-01-11T12:52:04.995Z,5.10
2018-01-11T12:54:31.910Z,5.20
2018-01-11T12:56:58.844Z,5.20
2018-01-11T12:59:25.781Z,5.20
2018-01-11T13:01:53.536Z,5.10
2018-01-11T13:04:21.232Z,5.10
2018-01-11T13:06:48.164Z,5.10
2018-01-11T13:09:15.097Z,5.20
2018-01-11T13:11:42.801Z,5.30
2018-01-11T13:14:09.759Z,5.30
2018-01-11T13:16:36.740Z,5.40
2018-01-11T13:19:04.440Z,5.30
2018-01-11T13:21:31.383Z,5.30
2018-01-11T13:23:58.344Z,5.30
2018-01-11T13:26:25.299Z,5.30
2018-01-11T13:28:52.217Z,5.20
2018-01-11T13:31:19.164Z,5.30
2018-01-11T13:33:46.073Z,5.30
2018-01-11T13:36:13.034Z,5.40
2018-01-11T13:38:40.014Z,5.40
2018-01-11T13:41:06.962Z,5.40
2018-01-11T13:43:34.769Z,5.30
2018-01-11T13:46:01.710Z,5.20
2018-01-11T13:48:29.597Z,5.20
2018-01-11T13:50:56.560Z,5.10
2018-01-11T13:53:24.517Z,5.10
2018-01-11T13:55:51.474Z,5.10
2018-01-11T13:58:18.413Z,5.10
2018-01-11T14:00:45.372Z,5.10
2018-01-11T14:03:12.287Z,5.10
2018-01-11T14:05:39.238Z,5.10
2018-01-11T14:08:06.318Z,5.20
2018-01-11T14:10:33.284Z,5.00
2018-01-11T14:13:00.212Z,5.10
2018-01-11T14:15:27.148Z,5.10
2018-01-11T14:17:54.089Z,5.10
2018-01-11T14:20:21.038Z,5.20
2018-01-11T14:22:47.980Z,5.10
2018-01-11T14:25:14.936Z,5.20
2018-01-11T14:27:41.857Z,5.10
2018-01-11T14:30:08.792Z,5.10
2018-01-11T14:32:35.715Z,5.20
2018-01-11T14:35:03.441Z,5.20
2018-01-11T14:37:31.122Z,5.10
2018-01-11T14:39:58.056Z,5.10
2018-01-11T14:42:24.975Z,5.20
2018-01-11T14:44:52.719Z,5.20
2018-01-11T14:47:19.646Z,5.20
2018-01-11T14:49:47.347Z,5.20
2018-01-11T14:52:14.273Z,5.20
2018-01-11T14:54:41.198Z,5.20
2018-01-11T14:57:09.092Z,5.20
2018-01-11T14:59:36.005Z,5.20
2018-01-11T15:02:02.941Z,5.10
2018-01-11T15:04:29.852Z,5.00
2018-01-11T15:06:57.548Z,5.00
2018-01-11T15:09:24.497Z,5.10
2018-01-11T15:11:51.414Z,5.10
2018-01-11T15:14:18.341Z,5.10
2018-01-11T15:16:46.016Z,5.00
2018-01-11T15:19:12.932Z,5.00
2018-01-11T15:21:40.609Z,5.10
2018-01-11T15:24:07.557Z,5.00
2018-01-11T15:26:35.233Z,5.00
2018-01-11T15:29:02.156Z,5.00
2018-01-11T15:31:29.828Z,5.00
2018-01-11T15:33:56.749Z,5.00
2018-01-11T15:36:23.656Z,5.10
2018-01-11T15:38:50.609Z,5.00
2018-01-11T15:41:17.536Z,5.00
2018-01-11T15:43:44.456Z,5.10
2018-01-11T15:46:11.368Z,5.00
2018-01-11T15:48:38.300Z,5.10
2018-01-11T15:51:05.217Z,5.10
2018-01-11T15:53:32.149Z,4.90
2018-01-11T15:55:59.074Z,4.90
2018-01-11T15:58:26.014Z,4.90
2018-01-11T16:00:52.929Z,4.90
2018-01-11T16:03:19.849Z,4.80
2018-01-11T16:05:46.781Z,4.90
2018-01-11T16:08:13.710Z,4.90
2018-01-11T16:10:40.620Z,5.00
2018-01-11T16:13:07.572Z,5.00
2018-01-11T16:15:34.486Z,4.90
2018-01-11T16:18:02.211Z,4.90
2018-01-11T16:20:29.125Z,4.90
2018-01-11T16:22:56.056Z,5.10
2018-01-11T16:25:23.797Z,4.90
2018-01-11T16:27:50.720Z,4.80
2018-01-11T16:30:17.642Z,4.80
2018-01-11T16:32:45.322Z,4.70
2018-01-11T16:35:12.249Z,4.70
2018-01-11T16:37:39.974Z,4.60
2018-01-11T16:40:06.900Z,4.60
2018-01-11T16:42:33.830Z,4.60
2018-01-11T16:45:00.758Z,4.60
2018-01-11T16:47:28.650Z,4.30
2018-01-11T16:49:55.562Z,4.30
2018-01-11T16:52:23.304Z,4.20
2018-01-11T16:54:50.326Z,4.10
2018-01-11T16:57:17.315Z,4.20
2018-01-11T16:59:44.271Z,4.10
2018-01-11T17:02:11.983Z,4.30
2018-01-11T17:04:38.964Z,4.30
2018-01-11T17:09:45.044Z,4.20
2018-01-11T17:12:12.753Z,4.30
2018-01-11T17:14:39.697Z,4.20
2018-01-11T17:17:06.634Z,4.20
2018-01-11T17:19:33.560Z,4.20
2018-01-11T17:22:00.560Z,4.30
2018-01-11T17:24:27.496Z,4.30
2018-01-11T17:26:54.432Z,4.30
2018-01-11T17:29:21.369Z,4.30
2018-01-11T17:31:48.288Z,4.50
2018-01-11T17:34:15.239Z,4.50
2018-01-11T17:36:42.157Z,4.40
2018-01-11T17:39:09.085Z,4.50
2018-01-11T17:41:36.014Z,4.40
2018-01-11T17:44:02.977Z,4.30
2018-01-11T17:46:29.901Z,4.30
2018-01-11T17:48:56.845Z,4.20
2018-01-11T17:51:27.518Z,4.20
2018-01-11T17:53:55.212Z,4.20
2018-01-11T17:56:22.148Z,4.20
2018-01-11T17:58:49.090Z,4.20
2018-01-11T18:01:16.030Z,4.20
2018-01-11T18:03:42.938Z,4.20
2018-01-11T18:06:10.662Z,4.30
2018-01-11T18:08:37.584Z,4.20
2018-01-11T18:11:04.664Z,4.30
2018-01-11T18:13:31.903Z,4.40
2018-01-11T18:15:58.823Z,4.30
2018-01-11T18:18:25.753Z,4.40
2018-01-11T18:20:54.468Z,4.60
2018-01-11T18:23:21.418Z,4.50
2018-01-11T18:25:48.342Z,4.60
2018-01-11T18:28:15.287Z,4.60
2018-01-11T18:30:42.241Z,4.60
2018-01-11T18:33:09.175Z,4.60
2018-01-11T18:35:36.129Z,4.70
2018-01-11T18:38:03.071Z,4.70
2018-01-11T18:40:30.005Z,4.80
2018-01-11T18:42:56.919Z,4.70
2018-01-11T18:45:23.875Z,4.90
2018-01-11T18:47:50.789Z,4.80
2018-01-11T18:50:18.153Z,4.70
2018-01-11T18:52:45.153Z,4.70
2018-01-11T18:55:12.090Z,4.80
2018-01-11T18:57:39.045Z,4.80
2018-01-11T19:00:06.010Z,5.00
2018-01-11T19:02:32.988Z,4.90
2018-01-11T19:04:59.965Z,5.00
2018-01-11T19:07:28.852Z,4.90
2018-01-11T19:09:55.776Z,4.70
2018-01-11T19:12:22.778Z,4.70
2018-01-11T19:14:49.693Z,4.60
2018-01-11T19:17:16.632Z,4.50
2018-01-11T19:19:43.548Z,4.50
2018-01-11T19:22:11.321Z,4.40
2018-01-11T19:24:40.014Z,4.60
2018-01-11T19:27:07.721Z,4.60
2018-01-11T19:29:34.686Z,4.60
2018-01-11T19:32:02.542Z,4.60
2018-01-11T19:34:29.517Z,4.80
2018-01-11T19:36:56.515Z,4.70
2018-01-11T19:39:23.485Z,4.70
2018-01-11T19:41:50.480Z,4.60
2018-01-11T19:44:17.413Z,4.60
2018-01-11T19:46:45.106Z,4.50
2018-01-11T19:49:12.151Z,4.50
2018-01-11T19:51:39.164Z,4.60
2018-01-11T19:54:07.876Z,4.60
2018-01-11T19:56:34.817Z,4.60
2018-01-11T19:59:01.773Z,4.60
2018-01-11T20:01:28.732Z,4.70
2018-01-11T20:03:55.664Z,4.60
2018-01-11T20:06:22.649Z,4.60
2018-01-11T20:08:49.601Z,4.40
2018-01-11T20:11:17.318Z,4.50
2018-01-11T20:13:44.243Z,4.40
2018-01-11T20:16:11.181Z,4.60
2018-01-11T20:18:38.865Z,4.50
2018-01-11T20:21:09.222Z,4.50
2018-01-11T20:23:36.142Z,4.50
2018-01-11T20:26:03.072Z,4.60
2018-01-11T20:28:30.027Z,4.40
2018-01-11T20:30:56.992Z,4.40
2018-01-11T20:33:24.924Z,4.40
2018-01-11T20:35:51.880Z,4.50
2018-01-11T20:38:18.801Z,4.60
2018-01-11T20:40:46.495Z,4.40
2018-01-11T20:43:13.433Z,4.50
2018-01-11T20:45:41.416Z,4.60
2018-01-11T20:48:08.348Z,4.60
2018-01-11T20:50:35.283Z,4.60
2018-01-11T20:53:02.208Z,4.60
2018-01-11T20:55:29.904Z,4.40
2018-01-11T20:57:56.822Z,4.40
2018-01-11T21:00:23.768Z,4.40
2018-01-11T21:02:50.689Z,4.30
2018-01-11T21:05:17.645Z,4.30
2018-01-11T21:07:45.684Z,4.30
2018-01-11T21:10:12.649Z,4.30
2018-01-11T21:12:39.540Z,4.30
2018-01-11T21:15:06.465Z,4.30
2018-01-11T21:17:33.397Z,4.30
2018-01-11T21:20:02.304Z,4.20
2018-01-11T21:22:29.237Z,4.20
2018-01-11T21:24:56.924Z,4.30
2018-01-11T21:27:23.845Z,4.30
2018-01-11T21:29:52.536Z,4.40
2018-01-11T21:32:19.511Z,4.30
2018-01-11T21:34:46.447Z,4.30
2018-01-11T21:37:13.353Z,4.20
2018-01-11T21:39:41.052Z,4.10
2018-01-11T21:42:07.972Z,4.10
2018-01-11T21:44:36.678Z,4.10
2018-01-11T21:47:03.593Z,4.10
2018-01-11T21:49:31.285Z,4.10
2018-01-11T21:51:58.201Z,4.00
2018-01-11T21:54:25.894Z,4.10
2018-01-11T21:56:52.955Z,4.00
2018-01-11T21:59:19.899Z,4.00
2018-01-11T22:01:47.720Z,4.00
2018-01-11T22:04:15.420Z,4.00
2018-01-11T22:06:42.364Z,4.00
2018-01-11T22:09:09.272Z,4.10
2018-01-11T22:11:36.951Z,4.00
2018-01-11T22:14:03.851Z,4.00
2018-01-11T22:16:30.772Z,4.00
2018-01-11T22:18:57.716Z,3.90
2018-01-11T22:21:24.737Z,4.00
2018-01-11T22:23:51.668Z,4.00
2018-01-11T22:26:19.353Z,3.90
2018-01-11T22:28:46.270Z,3.90
2018-01-11T22:31:14.039Z,3.90
2018-01-11T22:33:40.990Z,3.90
2018-01-11T22:36:07.984Z,3.90
2018-01-11T22:38:34.917Z,3.90
2018-01-11T22:41:01.824Z,4.00
2018-01-11T22:43:28.805Z,3.90
2018-01-11T22:45:55.724Z,3.90
2018-01-11T22:48:22.657Z,3.90
2018-01-11T22:50:49.609Z,3.90
2018-01-11T22:53:16.624Z,3.80
2018-01-11T22:55:43.566Z,3.80
2018-01-11T22:58:10.483Z,3.80
2018-01-11T23:00:37.468Z,3.80
2018-01-11T23:03:04.401Z,3.80
2018-01-11T23:05:31.340Z,3.80
2018-01-11T23:07:58.300Z,3.90
2018-01-11T23:10:26.011Z,3.80
2018-01-11T23:12:52.940Z,3.70
2018-01-11T23:15:19.844Z,3.70
2018-01-11T23:17:46.771Z,3.70
2018-01-11T23:20:13.696Z,3.70
2018-01-11T23:22:40.644Z,3.70
2018-01-11T23:25:07.695Z,3.70
2018-01-11T23:27:34.664Z,3.60
2018-01-11T23:30:01.591Z,3.70
2018-01-11T23:32:28.551Z,3.80
2018-01-11T23:34:55.456Z,3.80
2018-01-11T23:37:23.227Z,3.80
2018-01-11T23:39:50.136Z,3.80
2018-01-11T23:42:17.081Z,3.70
2018-01-11T23:44:44.014Z,3.60
2018-01-11T23:47:11.701Z,3.60
2018-01-11T23:49:38.715Z,3.60
2018-01-11T23:52:07.482Z,3.60
2018-01-11T23:54:34.414Z,3.50
2018-01-11T23:57:01.332Z,3.60
2018-01-11T23:59:28.299Z,3.60
